Wetterdaten: Woche 30.03.09 - 05.04.09 (KW14)
Datum Zeit Temperatur Luftfeuchte Luftdruck Niederschlag Wind Richtung Sonnenschein Solar Taupunkt Windchill Windben
30.03.2009 00:00 4.8 C 87 % 1011.7 hPa 0.0 l/m 0.0 km/h (0 Bft) N 0.00 h 0 W/m 2.9 C 4.8 C 0.5 km/h (0 Bft)
30.03.2009 01:00 4.6 C 90 % 1012.1 hPa 0.0 l/m 0.1 km/h (0 Bft) O-NO 0.00 h 0 W/m 3.0 C 4.6 C 0.2 km/h (0 Bft)
30.03.2009 02:00 4.4 C 91 % 1012.3 hPa 0.0 l/m 0.4 km/h (0 Bft) O-NO 0.00 h 0 W/m 3.0 C 4.4 C 1.5 km/h (1 Bft)
30.03.2009 03:00 4.6 C 88 % 1012.8 hPa 0.0 l/m 0.9 km/h (0 Bft) NO 0.00 h 0 W/m 2.7 C 4.6 C 2.9 km/h (1 Bft)
30.03.2009 04:00 4.6 C 84 % 1013.0 hPa 0.0 l/m 0.7 km/h (0 Bft) NO 0.00 h 0 W/m 2.1 C 4.6 C 2.7 km/h (1 Bft)
30.03.2009 05:00 4.4 C 82 % 1013.2 hPa 0.0 l/m 1.3 km/h (1 Bft) NO 0.00 h 0 W/m 1.6 C 4.4 C 3.5 km/h (1 Bft)
30.03.2009 06:00 4.2 C 81 % 1013.6 hPa 0.0 l/m 1.3 km/h (1 Bft) NO 0.00 h 0 W/m 1.3 C 4.2 C 3.6 km/h (1 Bft)
30.03.2009 07:00 3.9 C 81 % 1014.2 hPa 0.0 l/m 2.5 km/h (1 Bft) NO 0.00 h 17 W/m 0.9 C 3.7 C 5.7 km/h (1 Bft)
30.03.2009 08:00 4.2 C 81 % 1015.1 hPa 0.0 l/m 2.6 km/h (1 Bft) N-NO 0.00 h 58 W/m 1.2 C 4.2 C 5.8 km/h (2 Bft)
30.03.2009 09:00 4.9 C 78 % 1015.6 hPa 0.0 l/m 1.4 km/h (1 Bft) O-NO 0.00 h 128 W/m 1.4 C 4.9 C 4.3 km/h (1 Bft)
30.03.2009 10:00 6.2 C 75 % 1015.9 hPa 0.0 l/m 3.1 km/h (1 Bft) NO 0.02 h 240 W/m 2.0 C 5.9 C 6.6 km/h (2 Bft)
30.03.2009 11:00 7.2 C 70 % 1016.2 hPa 0.0 l/m 3.3 km/h (1 Bft) N-NO 0.00 h 184 W/m 2.2 C 6.9 C 6.9 km/h (2 Bft)
30.03.2009 12:00 7.5 C 70 % 1016.4 hPa 0.0 l/m 2.4 km/h (1 Bft) N 0.00 h 127 W/m 2.5 C 7.4 C 5.2 km/h (1 Bft)
30.03.2009 13:00 8.1 C 70 % 1016.3 hPa 0.0 l/m 2.9 km/h (1 Bft) N 0.00 h 127 W/m 2.9 C 7.9 C 6.1 km/h (2 Bft)
30.03.2009 14:00 8.2 C 68 % 1016.5 hPa 0.0 l/m 3.9 km/h (1 Bft) O 0.00 h 148 W/m 2.7 C 7.9 C 8.0 km/h (2 Bft)
30.03.2009 15:00 8.2 C 68 % 1016.7 hPa 0.0 l/m 4.3 km/h (1 Bft) O-NO 0.00 h 108 W/m 2.5 C 7.8 C 9.2 km/h (2 Bft)
30.03.2009 16:00 8.0 C 68 % 1017.1 hPa 0.0 l/m 3.1 km/h (1 Bft) O-NO 0.00 h 89 W/m 2.5 C 7.8 C 7.2 km/h (2 Bft)
30.03.2009 17:00 8.0 C 69 % 1017.3 hPa 0.0 l/m 1.0 km/h (0 Bft) O 0.00 h 37 W/m 2.6 C 8.0 C 2.7 km/h (1 Bft)
30.03.2009 18:00 7.8 C 70 % 1017.6 hPa 0.0 l/m 0.7 km/h (0 Bft) O-NO 0.00 h 14 W/m 2.7 C 7.8 C 2.0 km/h (1 Bft)
30.03.2009 19:00 7.8 C 70 % 1017.9 hPa 0.0 l/m 1.1 km/h (1 Bft) O 0.00 h 6 W/m 2.6 C 7.8 C 3.0 km/h (1 Bft)
30.03.2009 20:00 7.8 C 70 % 1018.5 hPa 0.0 l/m 1.6 km/h (1 Bft) O 0.00 h 0 W/m 2.6 C 7.8 C 4.8 km/h (1 Bft)
30.03.2009 21:00 7.8 C 70 % 1019.2 hPa 0.0 l/m 0.9 km/h (0 Bft) NO 0.00 h 0 W/m 2.7 C 7.8 C 3.1 km/h (1 Bft)
30.03.2009 22:00 7.7 C 71 % 1019.5 hPa 0.0 l/m 1.1 km/h (0 Bft) O 0.00 h 0 W/m 2.7 C 7.6 C 2.8 km/h (1 Bft)
30.03.2009 23:00 7.4 C 71 % 1019.6 hPa 0.0 l/m 0.7 km/h (0 Bft) NO 0.00 h 0 W/m 2.5 C 7.4 C 2.4 km/h (1 Bft)
31.03.2009 00:00 7.2 C 71 % 1019.7 hPa 0.0 l/m 2.0 km/h (1 Bft) N-NO 0.00 h 0 W/m 2.4 C 7.1 C 4.7 km/h (1 Bft)
31.03.2009 01:00 6.9 C 73 % 1019.5 hPa 0.0 l/m 3.4 km/h (1 Bft) NO 0.00 h 0 W/m 2.3 C 6.6 C 7.7 km/h (2 Bft)
31.03.2009 02:00 6.6 C 74 % 1019.2 hPa 0.0 l/m 1.5 km/h (1 Bft) N-NO 0.00 h 0 W/m 2.3 C 6.5 C 4.6 km/h (1 Bft)
31.03.2009 03:00 5.7 C 76 % 1019.2 hPa 0.0 l/m 0.9 km/h (0 Bft) O 0.00 h 0 W/m 1.9 C 5.7 C 2.9 km/h (1 Bft)
31.03.2009 04:00 4.7 C 79 % 1019.2 hPa 0.0 l/m 0.7 km/h (0 Bft) N-NO 0.00 h 0 W/m 1.5 C 4.7 C 2.6 km/h (1 Bft)
31.03.2009 05:00 4.0 C 82 % 1019.4 hPa 0.0 l/m 0.5 km/h (0 Bft) NO 0.00 h 0 W/m 1.3 C 4.0 C 1.7 km/h (1 Bft)
31.03.2009 06:00 4.0 C 85 % 1019.8 hPa 0.0 l/m 0.4 km/h (0 Bft) O 0.00 h 0 W/m 1.8 C 4.0 C 1.2 km/h (1 Bft)
31.03.2009 07:00 4.6 C 83 % 1019.9 hPa 0.0 l/m 3.8 km/h (1 Bft) O-SO 0.00 h 13 W/m 2.0 C 4.0 C 7.9 km/h (2 Bft)
31.03.2009 08:00 4.9 C 81 % 1020.1 hPa 0.0 l/m 4.2 km/h (1 Bft) O-SO 0.00 h 33 W/m 2.0 C 4.3 C 8.4 km/h (2 Bft)
31.03.2009 09:00 5.1 C 81 % 1020.3 hPa 0.0 l/m 2.6 km/h (1 Bft) O 0.00 h 59 W/m 2.1 C 4.8 C 6.7 km/h (2 Bft)
31.03.2009 10:00 5.8 C 78 % 1019.8 hPa 0.0 l/m 3.1 km/h (1 Bft) O 0.00 h 136 W/m 2.3 C 5.4 C 6.5 km/h (2 Bft)
31.03.2009 11:00 6.9 C 73 % 1019.8 hPa 0.0 l/m 3.2 km/h (1 Bft) O-SO 0.00 h 180 W/m 2.4 C 6.6 C 6.6 km/h (2 Bft)
31.03.2009 12:00 7.9 C 70 % 1019.5 hPa 0.0 l/m 3.2 km/h (1 Bft) O-SO 0.00 h 215 W/m 2.7 C 7.6 C 6.7 km/h (2 Bft)
31.03.2009 13:00 8.8 C 67 % 1019.0 hPa 0.0 l/m 4.3 km/h (1 Bft) O-SO 0.00 h 238 W/m 3.0 C 8.4 C 8.4 km/h (2 Bft)
31.03.2009 14:00 9.4 C 66 % 1018.6 hPa 0.0 l/m 7.2 km/h (2 Bft) O-SO 0.05 h 275 W/m 3.4 C 8.6 C 12.4 km/h (3 Bft)
31.03.2009 15:00 9.6 C 66 % 1018.0 hPa 0.0 l/m 7.2 km/h (2 Bft) O-SO 0.00 h 167 W/m 3.5 C 8.8 C 12.0 km/h (2 Bft)
31.03.2009 16:00 9.7 C 64 % 1017.7 hPa 0.0 l/m 4.7 km/h (1 Bft) O-SO 0.00 h 109 W/m 3.3 C 9.4 C 9.0 km/h (2 Bft)
31.03.2009 17:00 9.7 C 64 % 1017.5 hPa 0.0 l/m 3.0 km/h (1 Bft) O 0.00 h 62 W/m 3.2 C 9.5 C 6.8 km/h (2 Bft)
31.03.2009 18:00 9.4 C 65 % 1017.2 hPa 0.0 l/m 2.7 km/h (1 Bft) O 0.00 h 24 W/m 3.1 C 9.3 C 6.1 km/h (2 Bft)
31.03.2009 19:00 9.1 C 66 % 1016.9 hPa 0.0 l/m 2.5 km/h (1 Bft) NO 0.00 h 10 W/m 3.1 C 9.0 C 5.8 km/h (2 Bft)
31.03.2009 20:00 8.8 C 66 % 1016.9 hPa 0.0 l/m 3.8 km/h (1 Bft) NO 0.00 h 0 W/m 2.8 C 8.6 C 8.0 km/h (2 Bft)
31.03.2009 21:00 8.7 C 66 % 1016.6 hPa 0.0 l/m 3.2 km/h (1 Bft) N-NO 0.00 h 0 W/m 2.7 C 8.4 C 7.1 km/h (2 Bft)
31.03.2009 22:00 8.6 C 66 % 1016.3 hPa 0.0 l/m 2.9 km/h (1 Bft) N-NO 0.00 h 0 W/m 2.7 C 8.4 C 6.4 km/h (2 Bft)
31.03.2009 23:00 8.4 C 67 % 1015.6 hPa 0.0 l/m 2.9 km/h (1 Bft) NO 0.00 h 0 W/m 2.6 C 8.2 C 6.6 km/h (2 Bft)
01.04.2009 00:00 8.1 C 67 % 1014.8 hPa 0.0 l/m 1.9 km/h (1 Bft) NO 0.00 h 0 W/m 2.4 C 8.0 C 4.8 km/h (1 Bft)
01.04.2009 01:00 7.2 C 69 % 1014.3 hPa 0.0 l/m 2.1 km/h (1 Bft) N-NO 0.00 h 0 W/m 2.0 C 7.1 C 5.0 km/h (1 Bft)
01.04.2009 02:00 6.8 C 71 % 1013.9 hPa 0.0 l/m 2.5 km/h (1 Bft) O 0.00 h 0 W/m 2.0 C 6.6 C 5.7 km/h (1 Bft)
01.04.2009 03:00 6.8 C 72 % 1013.1 hPa 0.0 l/m 1.8 km/h (1 Bft) O 0.00 h 0 W/m 2.0 C 6.6 C 4.3 km/h (1 Bft)
01.04.2009 04:00 6.5 C 73 % 1012.7 hPa 0.0 l/m 2.4 km/h (1 Bft) O-SO 0.00 h 0 W/m 2.0 C 6.3 C 5.4 km/h (1 Bft)
01.04.2009 05:00 6.4 C 75 % 1012.5 hPa 0.0 l/m 2.9 km/h (1 Bft) O-SO 0.00 h 0 W/m 2.3 C 6.1 C 6.3 km/h (2 Bft)
01.04.2009 06:00 6.7 C 75 % 1012.4 hPa 0.0 l/m 3.4 km/h (1 Bft) N-NO 0.00 h 0 W/m 2.6 C 6.4 C 7.6 km/h (2 Bft)
01.04.2009 07:00 6.8 C 75 % 1012.5 hPa 0.0 l/m 3.6 km/h (1 Bft) N-NO 0.00 h 11 W/m 2.7 C 6.5 C 7.6 km/h (2 Bft)
01.04.2009 08:00 6.8 C 76 % 1012.6 hPa 0.0 l/m 3.0 km/h (1 Bft) N-NO 0.00 h 45 W/m 2.9 C 6.6 C 6.5 km/h (2 Bft)
01.04.2009 09:00 6.9 C 76 % 1013.0 hPa 0.0 l/m 3.8 km/h (1 Bft) O-SO 0.00 h 85 W/m 3.0 C 6.4 C 8.3 km/h (2 Bft)
01.04.2009 10:00 7.2 C 76 % 1013.5 hPa 0.0 l/m 4.3 km/h (1 Bft) N-NO 0.00 h 132 W/m 3.2 C 6.7 C 9.6 km/h (2 Bft)
01.04.2009 11:00 7.3 C 76 % 1014.0 hPa 0.0 l/m 5.3 km/h (1 Bft) N-NO 0.00 h 182 W/m 3.3 C 6.7 C 10.6 km/h (2 Bft)
01.04.2009 12:00 7.8 C 74 % 1014.5 hPa 0.0 l/m 4.7 km/h (1 Bft) N-NO 0.00 h 188 W/m 3.5 C 7.2 C 9.7 km/h (2 Bft)
01.04.2009 13:00 7.9 C 75 % 1014.7 hPa 0.0 l/m 4.0 km/h (1 Bft) NO 0.00 h 157 W/m 3.7 C 7.5 C 8.1 km/h (2 Bft)
01.04.2009 14:00 8.3 C 74 % 1014.7 hPa 0.0 l/m 3.4 km/h (1 Bft) O 0.00 h 177 W/m 3.9 C 8.1 C 7.7 km/h (2 Bft)
01.04.2009 15:00 8.6 C 74 % 1014.7 hPa 0.0 l/m 4.2 km/h (1 Bft) O-SO 0.00 h 168 W/m 4.3 C 8.3 C 8.5 km/h (2 Bft)
01.04.2009 16:00 9.0 C 74 % 1014.7 hPa 0.0 l/m 4.6 km/h (1 Bft) O-SO 0.00 h 146 W/m 4.5 C 8.6 C 9.2 km/h (2 Bft)
01.04.2009 17:00 8.8 C 75 % 1014.6 hPa 0.0 l/m 3.5 km/h (1 Bft) O 0.00 h 72 W/m 4.5 C 8.6 C 7.5 km/h (2 Bft)
01.04.2009 18:00 8.9 C 75 % 1014.6 hPa 0.0 l/m 3.5 km/h (1 Bft) O 0.00 h 46 W/m 4.7 C 8.7 C 7.8 km/h (2 Bft)
01.04.2009 19:00 8.9 C 76 % 1014.7 hPa 0.0 l/m 0.5 km/h (0 Bft) NO 0.00 h 11 W/m 4.8 C 8.9 C 1.6 km/h (1 Bft)
01.04.2009 20:00 8.8 C 76 % 1014.6 hPa 0.0 l/m 0.9 km/h (0 Bft) NO 0.00 h 0 W/m 4.9 C 8.8 C 2.4 km/h (1 Bft)
01.04.2009 21:00 8.7 C 78 % 1014.6 hPa 0.0 l/m 0.3 km/h (0 Bft) NO 0.00 h 0 W/m 5.0 C 8.7 C 1.2 km/h (1 Bft)
01.04.2009 22:00 8.4 C 81 % 1014.3 hPa 0.0 l/m 0.5 km/h (0 Bft) SO 0.00 h 0 W/m 5.2 C 8.4 C 1.4 km/h (1 Bft)
01.04.2009 23:00 7.7 C 85 % 1013.8 hPa 0.0 l/m 2.1 km/h (1 Bft) SO 0.00 h 0 W/m 5.3 C 7.7 C 3.6 km/h (1 Bft)
02.04.2009 00:00 7.4 C 87 % 1013.5 hPa 0.0 l/m 4.1 km/h (1 Bft) SO 0.00 h 0 W/m 5.4 C 7.0 C 6.1 km/h (2 Bft)
02.04.2009 01:00 7.6 C 87 % 1013.1 hPa 0.0 l/m 0.2 km/h (0 Bft) SO 0.00 h 0 W/m 5.6 C 7.6 C 0.7 km/h (0 Bft)
02.04.2009 02:00 7.7 C 87 % 1012.8 hPa 0.0 l/m 0.4 km/h (0 Bft) SO 0.00 h 0 W/m 5.7 C 7.7 C 1.5 km/h (1 Bft)
02.04.2009 03:00 7.9 C 87 % 1012.4 hPa 0.0 l/m 0.6 km/h (0 Bft) O-NO 0.00 h 0 W/m 5.9 C 7.9 C 2.1 km/h (1 Bft)
02.04.2009 04:00 9.0 C 86 % 1012.2 hPa 0.0 l/m 2.3 km/h (1 Bft) O-SO 0.00 h 0 W/m 6.8 C 8.9 C 5.1 km/h (1 Bft)
02.04.2009 05:00 10.1 C 81 % 1011.8 hPa 0.0 l/m 2.5 km/h (1 Bft) NO 0.00 h 0 W/m 6.9 C 10.1 C 5.7 km/h (1 Bft)
02.04.2009 06:00 10.1 C 80 % 1011.9 hPa 0.0 l/m 3.9 km/h (1 Bft) O 0.00 h 0 W/m 6.8 C 10.0 C 8.4 km/h (2 Bft)
02.04.2009 07:00 9.8 C 82 % 1012.4 hPa 0.0 l/m 2.8 km/h (1 Bft) NO 0.00 h 13 W/m 6.8 C 9.6 C 6.3 km/h (2 Bft)
02.04.2009 08:00 9.8 C 82 % 1012.4 hPa 0.0 l/m 2.8 km/h (1 Bft) O 0.00 h 29 W/m 6.8 C 9.6 C 6.0 km/h (2 Bft)
02.04.2009 09:00 10.1 C 81 % 1012.8 hPa 0.0 l/m 3.2 km/h (1 Bft) O-SO 0.00 h 66 W/m 7.0 C 9.9 C 7.1 km/h (2 Bft)
02.04.2009 10:00 10.8 C 79 % 1012.9 hPa 0.0 l/m 2.8 km/h (1 Bft) O-SO 0.00 h 136 W/m 7.3 C 10.8 C 5.8 km/h (2 Bft)
02.04.2009 11:00 11.6 C 76 % 1013.1 hPa 0.0 l/m 5.5 km/h (1 Bft) O-SO 0.00 h 215 W/m 7.6 C 11.6 C 10.0 km/h (2 Bft)
02.04.2009 12:00 12.7 C 72 % 1012.7 hPa 0.0 l/m 4.2 km/h (1 Bft) N-NO 0.07 h 300 W/m 7.8 C 12.7 C 8.3 km/h (2 Bft)
02.04.2009 13:00 14.4 C 68 % 1012.2 hPa 0.0 l/m 5.1 km/h (1 Bft) O-SO 0.72 h 587 W/m 8.5 C 14.4 C 8.9 km/h (2 Bft)
02.04.2009 14:00 16.0 C 64 % 1011.8 hPa 0.0 l/m 7.2 km/h (2 Bft) O-SO 0.72 h 522 W/m 9.1 C 16.0 C 11.3 km/h (2 Bft)
02.04.2009 15:00 16.7 C 61 % 1011.5 hPa 0.0 l/m 5.4 km/h (1 Bft) O-SO 0.75 h 487 W/m 9.2 C 16.7 C 8.4 km/h (2 Bft)
02.04.2009 16:00 17.8 C 59 % 1011.4 hPa 0.0 l/m 4.9 km/h (1 Bft) O-SO 0.75 h 398 W/m 9.6 C 17.8 C 8.0 km/h (2 Bft)
02.04.2009 17:00 18.2 C 57 % 1011.0 hPa 0.0 l/m 2.8 km/h (1 Bft) SO 0.58 h 261 W/m 9.5 C 18.2 C 5.0 km/h (1 Bft)
02.04.2009 18:00 18.7 C 55 % 1011.1 hPa 0.0 l/m 2.3 km/h (1 Bft) W-SW 0.52 h 133 W/m 9.4 C 18.7 C 4.2 km/h (1 Bft)
02.04.2009 19:00 17.6 C 59 % 1011.8 hPa 0.0 l/m 3.7 km/h (1 Bft) W-NW 0.58 h 53 W/m 9.5 C 17.6 C 6.1 km/h (2 Bft)
02.04.2009 20:00 15.3 C 67 % 1012.4 hPa 0.0 l/m 1.6 km/h (1 Bft) S-SO 0.00 h 0 W/m 9.2 C 15.3 C 3.6 km/h (1 Bft)
02.04.2009 21:00 13.6 C 72 % 1012.8 hPa 0.0 l/m 5.6 km/h (1 Bft) S-SO 0.00 h 0 W/m 8.7 C 13.6 C 9.6 km/h (2 Bft)
02.04.2009 22:00 12.4 C 74 % 1013.1 hPa 0.0 l/m 7.0 km/h (2 Bft) S-SO 0.00 h 0 W/m 8.0 C 12.4 C 12.1 km/h (2 Bft)
02.04.2009 23:00 11.5 C 77 % 1013.3 hPa 0.0 l/m 8.7 km/h (2 Bft) S-SO 0.00 h 0 W/m 7.6 C 11.5 C 14.7 km/h (3 Bft)
03.04.2009 00:00 11.1 C 78 % 1013.7 hPa 0.0 l/m 6.4 km/h (2 Bft) S-SW 0.00 h 0 W/m 7.5 C 11.1 C 11.2 km/h (2 Bft)
03.04.2009 01:00 10.8 C 79 % 1013.9 hPa 0.0 l/m 5.3 km/h (1 Bft) S-SO 0.00 h 0 W/m 7.3 C 10.8 C 8.6 km/h (2 Bft)
03.04.2009 02:00 10.4 C 80 % 1014.3 hPa 0.0 l/m 3.7 km/h (1 Bft) S-SO 0.00 h 0 W/m 7.1 C 10.4 C 6.6 km/h (2 Bft)
03.04.2009 03:00 10.1 C 80 % 1014.3 hPa 0.0 l/m 4.5 km/h (1 Bft) S-SO 0.00 h 0 W/m 6.9 C 10.1 C 8.6 km/h (2 Bft)
03.04.2009 04:00 10.3 C 80 % 1014.3 hPa 0.0 l/m 4.7 km/h (1 Bft) S-SO 0.00 h 0 W/m 7.0 C 10.3 C 8.2 km/h (2 Bft)
03.04.2009 05:00 10.4 C 80 % 1014.6 hPa 0.0 l/m 3.6 km/h (1 Bft) S-SO 0.00 h 0 W/m 7.1 C 10.4 C 7.1 km/h (2 Bft)
03.04.2009 06:00 10.3 C 80 % 1015.1 hPa 0.0 l/m 2.9 km/h (1 Bft) S-SW 0.00 h 0 W/m 7.1 C 10.3 C 5.6 km/h (1 Bft)
03.04.2009 07:00 10.1 C 82 % 1015.7 hPa 0.0 l/m 1.6 km/h (1 Bft) S-SO 0.00 h 17 W/m 7.1 C 10.0 C 3.9 km/h (1 Bft)
03.04.2009 08:00 10.4 C 82 % 1016.6 hPa 0.0 l/m 0.9 km/h (0 Bft) S-SW 0.00 h 78 W/m 7.4 C 10.4 C 2.7 km/h (1 Bft)
03.04.2009 09:00 11.7 C 78 % 1017.3 hPa 0.0 l/m 3.0 km/h (1 Bft) S 0.70 h 243 W/m 8.0 C 11.7 C 5.7 km/h (1 Bft)
03.04.2009 10:00 13.5 C 69 % 1017.6 hPa 0.0 l/m 8.5 km/h (2 Bft) W-SW 1.00 h 431 W/m 7.9 C 13.5 C 13.1 km/h (3 Bft)
03.04.2009 11:00 14.3 C 64 % 1017.6 hPa 0.0 l/m 9.8 km/h (2 Bft) W 0.67 h 452 W/m 7.6 C 14.3 C 15.2 km/h (3 Bft)
03.04.2009 12:00 14.8 C 63 % 1017.7 hPa 0.0 l/m 4.9 km/h (1 Bft) W-NW 0.12 h 303 W/m 7.9 C 14.8 C 7.8 km/h (2 Bft)
03.04.2009 13:00 16.6 C 58 % 1017.6 hPa 0.0 l/m 3.9 km/h (1 Bft) W-NW 0.82 h 572 W/m 8.4 C 16.6 C 6.6 km/h (2 Bft)
03.04.2009 14:00 18.1 C 54 % 1017.4 hPa 0.0 l/m 4.1 km/h (1 Bft) W 0.98 h 649 W/m 8.7 C 18.1 C 7.2 km/h (2 Bft)
03.04.2009 15:00 18.5 C 51 % 1016.9 hPa 0.0 l/m 6.2 km/h (2 Bft) W-NW 0.95 h 569 W/m 8.2 C 18.5 C 9.3 km/h (2 Bft)
03.04.2009 16:00 18.8 C 50 % 1016.5 hPa 0.0 l/m 3.0 km/h (1 Bft) W-NW 0.32 h 263 W/m 8.1 C 18.8 C 5.6 km/h (1 Bft)
03.04.2009 17:00 18.2 C 52 % 1016.4 hPa 0.0 l/m 1.4 km/h (1 Bft) W-SW 0.22 h 136 W/m 8.0 C 18.2 C 2.9 km/h (1 Bft)
03.04.2009 18:00 18.2 C 51 % 1016.4 hPa 0.0 l/m 2.4 km/h (1 Bft) S 0.47 h 132 W/m 7.8 C 18.2 C 4.8 km/h (1 Bft)
03.04.2009 19:00 17.4 C 52 % 1016.7 hPa 0.0 l/m 2.3 km/h (1 Bft) S-SO 0.05 h 33 W/m 7.4 C 17.4 C 4.1 km/h (1 Bft)
03.04.2009 20:00 14.7 C 61 % 1017.2 hPa 0.0 l/m 3.9 km/h (1 Bft) O-SO 0.00 h 5 W/m 7.2 C 14.7 C 5.2 km/h (1 Bft)
03.04.2009 21:00 12.9 C 68 % 1017.9 hPa 0.0 l/m 1.9 km/h (1 Bft) O-SO 0.00 h 0 W/m 7.2 C 12.9 C 2.9 km/h (1 Bft)
03.04.2009 22:00 10.8 C 77 % 1018.6 hPa 0.0 l/m 1.1 km/h (1 Bft) O-SO 0.00 h 0 W/m 6.9 C 10.8 C 1.8 km/h (1 Bft)
03.04.2009 23:00 9.6 C 81 % 1019.3 hPa 0.0 l/m 0.8 km/h (0 Bft) O-SO 0.00 h 0 W/m 6.5 C 9.6 C 1.5 km/h (1 Bft)
04.04.2009 00:00 8.7 C 83 % 1019.5 hPa 0.0 l/m 1.0 km/h (0 Bft) O-SO 0.00 h 0 W/m 6.0 C 8.7 C 1.8 km/h (1 Bft)
04.04.2009 01:00 7.7 C 86 % 1019.4 hPa 0.0 l/m 0.5 km/h (0 Bft) O-SO 0.00 h 0 W/m 5.4 C 7.7 C 1.0 km/h (0 Bft)
04.04.2009 02:00 6.9 C 89 % 1019.5 hPa 0.0 l/m 0.8 km/h (0 Bft) O-SO 0.00 h 0 W/m 5.2 C 6.9 C 1.5 km/h (1 Bft)
04.04.2009 03:00 6.6 C 90 % 1019.2 hPa 0.0 l/m 0.1 km/h (0 Bft) O-SO 0.00 h 0 W/m 5.1 C 6.6 C 0.3 km/h (0 Bft)
04.04.2009 04:00 6.0 C 91 % 1019.4 hPa 0.0 l/m 0.4 km/h (0 Bft) O-SO 0.00 h 0 W/m 4.6 C 6.0 C 0.9 km/h (0 Bft)
04.04.2009 05:00 5.4 C 93 % 1019.8 hPa 0.0 l/m 0.3 km/h (0 Bft) O-SO 0.00 h 0 W/m 4.3 C 5.4 C 0.7 km/h (0 Bft)
04.04.2009 06:00 4.9 C 94 % 1019.9 hPa 0.0 l/m 0.0 km/h (0 Bft) O-SO 0.00 h 0 W/m 4.0 C 4.9 C 0.1 km/h (0 Bft)
04.04.2009 07:00 4.6 C 95 % 1020.1 hPa 0.0 l/m 0.6 km/h (0 Bft) O-SO 0.00 h 14 W/m 3.8 C 4.6 C 1.2 km/h (1 Bft)
04.04.2009 08:00 4.6 C 96 % 1020.5 hPa 0.0 l/m 1.0 km/h (0 Bft) O-SO 0.00 h 61 W/m 4.0 C 4.5 C 1.4 km/h (1 Bft)
04.04.2009 09:00 5.9 C 97 % 1020.9 hPa 0.0 l/m 0.4 km/h (0 Bft) O-SO 0.02 h 171 W/m 5.4 C 5.9 C 1.6 km/h (1 Bft)
04.04.2009 10:00 7.1 C 96 % 1021.2 hPa 0.0 l/m 0.3 km/h (0 Bft) N-NO 0.00 h 107 W/m 6.5 C 7.1 C 1.1 km/h (1 Bft)
04.04.2009 11:00 9.2 C 88 % 1021.0 hPa 0.0 l/m 0.6 km/h (0 Bft) N-NO 0.30 h 299 W/m 7.3 C 9.2 C 1.8 km/h (1 Bft)
04.04.2009 12:00 11.6 C 76 % 1020.8 hPa 0.0 l/m 0.9 km/h (0 Bft) N-NO 0.48 h 422 W/m 7.5 C 11.6 C 2.3 km/h (1 Bft)
04.04.2009 13:00 14.2 C 69 % 1020.3 hPa 0.0 l/m 3.5 km/h (1 Bft) N-NW 0.88 h 489 W/m 8.6 C 14.2 C 5.6 km/h (1 Bft)
04.04.2009 14:00 16.4 C 61 % 1019.6 hPa 0.0 l/m 2.3 km/h (1 Bft) N-NW 1.00 h 634 W/m 8.9 C 16.4 C 4.4 km/h (1 Bft)
04.04.2009 15:00 18.1 C 49 % 1019.2 hPa 0.0 l/m 2.6 km/h (1 Bft) NW 1.00 h 539 W/m 7.1 C 18.1 C 4.4 km/h (1 Bft)
04.04.2009 16:00 18.6 C 50 % 1018.8 hPa 0.0 l/m 1.4 km/h (1 Bft) SO 0.95 h 444 W/m 7.8 C 18.6 C 3.5 km/h (1 Bft)
04.04.2009 17:00 18.7 C 48 % 1018.7 hPa 0.0 l/m 2.5 km/h (1 Bft) SO 1.00 h 359 W/m 7.6 C 18.7 C 4.6 km/h (1 Bft)
04.04.2009 18:00 18.5 C 49 % 1018.8 hPa 0.0 l/m 6.4 km/h (2 Bft) N 0.47 h 154 W/m 7.4 C 18.5 C 11.2 km/h (2 Bft)
04.04.2009 19:00 15.8 C 59 % 1019.4 hPa 0.0 l/m 4.6 km/h (1 Bft) N-NO 0.05 h 32 W/m 7.8 C 15.8 C 10.9 km/h (2 Bft)
04.04.2009 20:00 14.2 C 64 % 1020.0 hPa 0.0 l/m 1.1 km/h (0 Bft) W 0.00 h 5 W/m 7.5 C 14.2 C 2.5 km/h (1 Bft)
04.04.2009 21:00 12.7 C 71 % 1020.7 hPa 0.0 l/m 1.4 km/h (1 Bft) O-SO 0.00 h 0 W/m 7.6 C 12.7 C 2.4 km/h (1 Bft)
04.04.2009 22:00 11.7 C 76 % 1021.3 hPa 0.0 l/m 0.2 km/h (0 Bft) O-SO 0.00 h 0 W/m 7.6 C 11.7 C 0.9 km/h (0 Bft)
04.04.2009 23:00 10.7 C 82 % 1021.4 hPa 0.0 l/m 1.8 km/h (1 Bft) O-SO 0.00 h 0 W/m 7.7 C 10.7 C 3.2 km/h (1 Bft)
05.04.2009 00:00 10.3 C 84 % 1021.4 hPa 0.0 l/m 0.0 km/h (0 Bft) O-SO 0.00 h 0 W/m 7.7 C 10.3 C 0.3 km/h (0 Bft)
05.04.2009 01:00 10.1 C 84 % 1021.2 hPa 0.0 l/m 0.1 km/h (0 Bft) O-SO 0.00 h 0 W/m 7.5 C 10.1 C 0.5 km/h (0 Bft)
05.04.2009 02:00 9.3 C 86 % 1021.0 hPa 0.0 l/m 1.0 km/h (0 Bft) O-SO 0.00 h 0 W/m 7.0 C 9.3 C 2.0 km/h (1 Bft)
05.04.2009 03:00 8.5 C 88 % 1020.8 hPa 0.0 l/m 2.4 km/h (1 Bft) O-SO 0.00 h 0 W/m 6.7 C 8.5 C 4.0 km/h (1 Bft)
05.04.2009 04:00 7.6 C 90 % 1020.8 hPa 0.0 l/m 2.3 km/h (1 Bft) O-SO 0.00 h 0 W/m 6.0 C 7.5 C 3.4 km/h (1 Bft)
05.04.2009 05:00 7.0 C 91 % 1020.9 hPa 0.0 l/m 3.0 km/h (1 Bft) O-SO 0.00 h 0 W/m 5.7 C 6.8 C 4.2 km/h (1 Bft)
05.04.2009 06:00 6.6 C 93 % 1021.2 hPa 0.0 l/m 1.1 km/h (1 Bft) O-SO 0.00 h 0 W/m 5.5 C 6.6 C 1.9 km/h (1 Bft)
05.04.2009 07:00 6.7 C 94 % 1021.7 hPa 0.0 l/m 0.3 km/h (0 Bft) O-SO 0.00 h 19 W/m 5.8 C 6.7 C 0.8 km/h (0 Bft)
05.04.2009 08:00 7.4 C 95 % 1021.7 hPa 0.0 l/m 0.3 km/h (0 Bft) O-SO 0.00 h 83 W/m 6.6 C 7.4 C 1.0 km/h (0 Bft)
05.04.2009 09:00 8.9 C 94 % 1021.8 hPa 0.0 l/m 0.2 km/h (0 Bft) O-SO 0.48 h 233 W/m 8.0 C 8.9 C 0.7 km/h (0 Bft)
05.04.2009 10:00 12.0 C 80 % 1021.6 hPa 0.0 l/m 1.5 km/h (1 Bft) N 1.00 h 423 W/m 8.7 C 12.0 C 3.2 km/h (1 Bft)
05.04.2009 11:00 14.7 C 69 % 1021.2 hPa 0.0 l/m 2.4 km/h (1 Bft) W-NW 1.00 h 558 W/m 9.1 C 14.7 C 4.5 km/h (1 Bft)
05.04.2009 12:00 16.8 C 62 % 1020.5 hPa 0.0 l/m 3.6 km/h (1 Bft) O-SO 0.93 h 627 W/m 9.4 C 16.8 C 7.0 km/h (2 Bft)
05.04.2009 13:00 17.8 C 57 % 1019.8 hPa 0.0 l/m 4.6 km/h (1 Bft) O-SO 1.00 h 699 W/m 9.1 C 17.8 C 8.0 km/h (2 Bft)
05.04.2009 14:00 18.9 C 53 % 1019.1 hPa 0.0 l/m 4.0 km/h (1 Bft) SO 0.87 h 648 W/m 9.0 C 18.9 C 7.7 km/h (2 Bft)
05.04.2009 15:00 19.0 C 52 % 1018.5 hPa 0.0 l/m 5.1 km/h (1 Bft) O-SO 0.77 h 541 W/m 8.9 C 19.0 C 8.4 km/h (2 Bft)
05.04.2009 16:00 18.5 C 52 % 1018.0 hPa 0.0 l/m 2.7 km/h (1 Bft) O-SO 0.10 h 239 W/m 8.4 C 18.5 C 5.4 km/h (1 Bft)
05.04.2009 17:00 18.7 C 53 % 1017.6 hPa 0.0 l/m 7.2 km/h (2 Bft) N-NO 0.10 h 190 W/m 9.0 C 18.7 C 13.9 km/h (3 Bft)
05.04.2009 18:00 17.0 C 61 % 1017.6 hPa 0.0 l/m 1.7 km/h (1 Bft) NO 0.00 h 84 W/m 9.3 C 17.0 C 4.7 km/h (1 Bft)
05.04.2009 19:00 15.9 C 61 % 1017.6 hPa 0.0 l/m 0.3 km/h (0 Bft) W 0.05 h 29 W/m 8.2 C 15.9 C 1.4 km/h (1 Bft)
05.04.2009 20:00 14.5 C 65 % 1017.7 hPa 0.0 l/m 0.1 km/h (0 Bft) S-SO 0.00 h 5 W/m 8.0 C 14.5 C 0.9 km/h (0 Bft)
05.04.2009 21:00 12.6 C 73 % 1018.3 hPa 0.0 l/m 0.4 km/h (0 Bft) SO 0.00 h 0 W/m 7.9 C 12.6 C 1.1 km/h (1 Bft)
05.04.2009 22:00 11.2 C 78 % 1018.3 hPa 0.0 l/m 0.3 km/h (0 Bft) SO 0.00 h 0 W/m 7.6 C 11.2 C 1.0 km/h (0 Bft)
05.04.2009 23:00 10.4 C 81 % 1018.1 hPa 0.0 l/m 0.3 km/h (0 Bft) SO 0.00 h 0 W/m 7.3 C 10.4 C 1.2 km/h (1 Bft)
Min-Datum _ 30.03.09 04.04.09 02.04.09 - 30.03.09 - - - 30.03.09 31.03.09 30.03.09
_ Min-Zeit 08:00 15:48 17:00 - 00:00 - - - 07:28 07:53 00:00
Minimum _ 3.7 C 42 % 1010.9 hPa - 0.0 km/h (0 Bft) - - - 0.8 C 1.7 C 0.0 km/h (0 Bft)
Max-Datum _ 05.04.09 04.04.09 05.04.09 30.03.09 31.03.09 - 30.03.09 03.04.09 05.04.09 05.04.09 31.03.09
_ Max-Zeit 17:05 08:57 09:15 00:00 14:42 - 10:11 13:15 12:25 17:04 14:15
Maximum _ 19.8 C 97 % 1021.9 hPa 0.0 l/m 17.4 km/h
O-SO (3 Bft)
- 0.02 h 840 W/m 11.0 C 19.8 C 27.8 km/h
O-SO (4 Bft)
Durchschnitt _ 10.1 C 74 % 1016.7 hPa #0.0 l/m 2.6 km/h (1 Bft) O-SO #23:29 h 207 W/m 5.4 C 10.0 C 5.3 km/h (1 Bft)
© Kaiko 2009